Time;durP1;ratioP1;P1;durP2;ratioP2;P2;SDS_P1;SDS_P2;PMS_P1;PMS_P2;Temp;Humidity;BMP_temperature;BMP_pressure;BME280_temperature;BME280_humidity;BME280_pressure;Samples;Min_cycle;Max_cycle;Signal;HPM_P1;HPM_P2
2021/08/18 00:00:59;;;;;;;12.10;3.40;;;;;;;14.24;63.79;100062.20;126283;1092;22762;-55
2021/08/18 00:03:31;;;;;;;13.67;2.90;;;;;;;14.23;63.60;100071.91;126118;1093;22780;-56
2021/08/18 00:06:03;;;;;;;13.70;2.80;;;;;;;14.20;64.10;100061.69;126358;1092;22787;-55
2021/08/18 00:08:35;;;;;;;9.85;2.75;;;;;;;14.18;63.97;100064.23;125913;1093;22764;-57
2021/08/18 00:11:06;;;;;;;14.65;3.70;;;;;;;14.18;63.96;100066.27;126016;1092;26273;-60
2021/08/18 00:13:38;;;;;;;12.35;3.30;;;;;;;14.16;64.35;100063.20;126081;1092;27182;-54
2021/08/18 00:16:10;;;;;;;12.85;3.30;;;;;;;14.15;64.00;100070.84;126123;1093;22784;-57
2021/08/18 00:18:41;;;;;;;12.25;3.25;;;;;;;14.15;63.99;100068.04;125995;1092;22864;-57
2021/08/18 00:21:13;;;;;;;12.20;3.75;;;;;;;14.14;64.07;100066.52;126042;1092;22765;-58
2021/08/18 00:23:45;;;;;;;15.97;3.13;;;;;;;14.13;64.22;100069.84;126478;1093;22884;-57
2021/08/18 00:26:17;;;;;;;11.70;3.00;;;;;;;14.14;64.34;100065.75;125947;1092;26741;-57
2021/08/18 00:28:48;;;;;;;12.13;3.33;;;;;;;14.14;64.61;100069.33;126074;1093;23501;-59
2021/08/18 00:31:21;;;;;;;14.10;3.80;;;;;;;14.16;64.46;100071.63;125729;1092;22819;-57
2021/08/18 00:33:52;;;;;;;11.97;2.93;;;;;;;14.17;64.23;100081.59;125906;1093;22847;-56
2021/08/18 00:36:24;;;;;;;12.70;4.05;;;;;;;14.18;64.23;100078.27;125897;1093;27313;-56
2021/08/18 00:38:56;;;;;;;9.85;2.75;;;;;;;14.20;64.13;100080.56;125739;1093;22787;-56
2021/08/18 00:41:27;;;;;;;10.97;3.13;;;;;;;14.21;64.22;100070.88;125801;1093;22807;-55
2021/08/18 00:43:59;;;;;;;13.55;3.45;;;;;;;14.20;64.53;100075.72;126010;1093;22777;-54
2021/08/18 00:46:31;;;;;;;16.15;3.10;;;;;;;14.20;63.99;100078.53;126182;1093;22787;-55
2021/08/18 00:49:03;;;;;;;13.00;3.20;;;;;;;14.21;64.72;100079.30;125885;1093;22800;-58
2021/08/18 00:51:34;;;;;;;13.40;3.50;;;;;;;14.20;64.58;100081.34;125808;1093;22739;-56
2021/08/18 00:54:05;;;;;;;12.70;3.60;;;;;;;14.21;64.30;100076.49;125931;1093;22776;-56
2021/08/18 00:56:37;;;;;;;11.80;3.30;;;;;;;14.23;64.65;100085.95;125653;1092;23303;-57
2021/08/18 00:59:10;;;;;;;15.75;4.05;;;;;;;14.24;64.21;100083.88;125976;1093;27750;-57
2021/08/18 01:01:42;;;;;;;14.20;3.60;;;;;;;14.25;64.45;100085.44;125876;1093;22781;-57
2021/08/18 01:04:14;;;;;;;12.87;3.47;;;;;;;14.25;64.39;100089.02;125847;1093;22785;-54
2021/08/18 01:06:47;;;;;;;13.05;3.80;;;;;;;14.27;64.35;100085.69;125932;1093;22827;-55
2021/08/18 01:09:20;;;;;;;13.40;3.15;;;;;;;14.26;64.31;100079.30;125959;1093;22787;-56
2021/08/18 01:11:53;;;;;;;14.90;4.10;;;;;;;14.27;64.69;100080.84;125760;1093;27201;-57
2021/08/18 01:14:25;;;;;;;12.05;3.40;;;;;;;14.27;64.76;100080.08;125688;1093;22787;-58
2021/08/18 01:16:56;;;;;;;12.85;3.95;;;;;;;14.28;64.76;100082.39;125838;1093;22783;-54
2021/08/18 01:19:27;;;;;;;14.20;3.45;;;;;;;14.27;64.64;100078.04;125727;1093;22787;-56
2021/08/18 01:21:59;;;;;;;14.50;3.70;;;;;;;14.27;64.99;100080.08;125726;1093;22812;-59
2021/08/18 01:24:32;;;;;;;16.25;4.55;;;;;;;14.26;64.31;100079.30;125948;1093;22738;-56
2021/08/18 01:27:03;;;;;;;15.00;4.03;;;;;;;14.25;64.94;100077.02;125663;1091;22852;-56
2021/08/18 01:29:35;;;;;;;12.90;4.10;;;;;;;14.24;64.75;100076.23;125739;1093;22838;-56
2021/08/18 01:32:08;;;;;;;11.80;3.40;;;;;;;14.24;65.07;100072.66;125697;1093;22840;-57
2021/08/18 01:34:39;;;;;;;12.60;3.60;;;;;;;14.24;64.83;100072.66;125875;1093;27185;-57
2021/08/18 01:37:11;;;;;;;15.25;4.30;;;;;;;14.23;64.41;100071.14;125699;1093;22791;-59
2021/08/18 01:39:43;;;;;;;15.23;4.10;;;;;;;14.21;65.09;100071.66;125780;1093;24430;-59
2021/08/18 01:42:14;;;;;;;14.03;4.17;;;;;;;14.21;64.18;100076.49;125681;1093;24583;-57
2021/08/18 01:44:46;;;;;;;14.80;4.40;;;;;;;14.22;64.61;100069.59;125726;1093;22815;-57
2021/08/18 01:47:17;;;;;;;17.10;4.50;;;;;;;14.22;65.07;100070.36;125686;1093;22765;-58
2021/08/18 01:49:49;;;;;;;14.90;4.67;;;;;;;14.20;64.66;100070.11;125828;1093;22784;-56
2021/08/18 01:52:20;;;;;;;15.05;3.90;;;;;;;14.18;64.82;100083.11;125632;1093;22797;-55
2021/08/18 01:54:52;;;;;;;16.00;4.80;;;;;;;14.18;65.21;100083.11;125647;1093;22787;-58
2021/08/18 01:57:24;;;;;;;15.10;3.97;;;;;;;14.18;64.94;100080.30;125838;1093;27281;-57
2021/08/18 01:59:56;;;;;;;13.95;4.25;;;;;;;14.16;65.13;100075.20;125905;1093;24578;-55
2021/08/18 02:02:31;;;;;;;19.20;4.40;;;;;;;14.15;65.21;100078.53;125810;1093;25837;-56
2021/08/18 02:05:03;;;;;;;17.17;4.27;;;;;;;14.15;65.02;100078.53;125889;1093;22800;-57
2021/08/18 02:07:35;;;;;;;15.30;4.25;;;;;;;14.14;65.02;100076.98;125877;1093;22938;-54
2021/08/18 02:10:08;;;;;;;14.47;4.27;;;;;;;14.13;65.25;100075.46;126129;1093;22851;-59
2021/08/18 02:12:40;;;;;;;16.03;4.50;;;;;;;14.12;65.12;100071.88;125838;1093;22812;-57
2021/08/18 02:15:15;;;;;;;15.05;4.25;;;;;;;14.11;65.05;100075.95;125892;1093;22791;-57
2021/08/18 02:17:47;;;;;;;15.27;4.30;;;;;;;14.12;65.13;100071.11;125863;1093;27761;-57
2021/08/18 02:20:23;;;;;;;17.45;5.25;;;;;;;14.12;65.02;100071.88;125898;1093;26761;-56
2021/08/18 02:22:55;;;;;;;18.35;4.45;;;;;;;14.11;65.49;100075.20;125860;1093;22790;-57
2021/08/18 02:25:27;;;;;;;16.83;4.77;;;;;;;14.09;65.14;100074.95;125869;1092;22808;-57
2021/08/18 02:27:59;;;;;;;14.87;4.90;;;;;;;14.10;65.48;100070.84;125888;1093;22762;-54
2021/08/18 02:30:31;;;;;;;13.60;4.65;;;;;;;14.08;65.18;100067.78;125746;1093;22816;-57
2021/08/18 02:33:03;;;;;;;15.65;4.60;;;;;;;14.06;65.30;100067.52;125904;1093;22795;-54
2021/08/18 02:35:35;;;;;;;15.55;4.70;;;;;;;14.05;65.51;100075.17;125852;1093;22781;-59
2021/08/18 02:38:07;;;;;;;14.70;5.30;;;;;;;14.04;65.43;100073.66;125895;1093;22751;-58
2021/08/18 02:40:39;;;;;;;15.00;4.55;;;;;;;14.00;65.22;100075.94;125800;1092;26292;-61
2021/08/18 02:43:11;;;;;;;17.27;4.53;;;;;;;13.97;65.21;100082.55;125799;1093;25511;-59
2021/08/18 02:45:42;;;;;;;14.00;4.13;;;;;;;13.95;65.34;100076.68;125776;1093;26282;-56
2021/08/18 02:48:15;;;;;;;18.30;4.95;;;;;;;13.91;65.19;100075.39;125805;1093;27170;-57
2021/08/18 02:50:47;;;;;;;12.80;4.20;;;;;;;13.88;65.56;100085.61;125896;1093;22774;-55
2021/08/18 02:53:21;;;;;;;13.80;4.75;;;;;;;13.83;65.28;100083.53;125874;1093;22760;-56
2021/08/18 02:55:53;;;;;;;17.45;5.10;;;;;;;13.77;65.20;100079.95;125819;1093;22787;-55
2021/08/18 02:58:25;;;;;;;16.27;4.47;;;;;;;13.74;65.46;100078.14;125851;1093;27215;-55
2021/08/18 03:00:58;;;;;;;13.43;4.07;;;;;;;13.70;65.58;100086.80;125762;1093;22816;-56
2021/08/18 03:03:30;;;;;;;16.60;4.50;;;;;;;13.66;65.37;100088.31;125755;1092;27173;-57
2021/08/18 03:06:02;;;;;;;19.60;5.40;;;;;;;13.59;65.54;100075.53;125817;1093;22851;-54
2021/08/18 03:08:34;;;;;;;14.65;4.25;;;;;;;13.58;65.64;100084.45;125792;1092;23353;-58
2021/08/18 03:11:06;;;;;;;14.80;5.20;;;;;;;13.54;65.82;100089.54;125887;1092;22774;-57
2021/08/18 03:13:38;;;;;;;15.80;4.40;;;;;;;13.50;65.67;100084.18;125900;1093;22824;-56
2021/08/18 03:16:10;;;;;;;15.95;4.75;;;;;;;13.47;65.87;100087.23;125762;1093;22757;-55
2021/08/18 03:18:42;;;;;;;16.00;4.25;;;;;;;13.42;66.04;100085.92;125772;1093;26241;-58
2021/08/18 03:21:13;;;;;;;18.05;5.05;;;;;;;13.38;66.01;100076.98;125770;1093;27239;-57
2021/08/18 03:23:47;;;;;;;15.17;4.83;;;;;;;13.33;66.01;100079.74;125833;1092;22754;-57
2021/08/18 03:26:20;;;;;;;15.47;5.03;;;;;;;13.29;66.38;100082.80;125744;1093;22812;-55
2021/08/18 03:28:52;;;;;;;14.40;4.43;;;;;;;13.26;66.26;100083.03;125886;1093;25999;-54
2021/08/18 03:31:23;;;;;;;15.00;4.40;;;;;;;13.22;66.16;100077.64;125888;1093;26277;-56
2021/08/18 03:33:56;;;;;;;21.35;5.20;;;;;;;13.20;66.32;100085.04;125924;1093;22809;-57
2021/08/18 03:36:36;;;;;;;15.30;4.87;;;;;;;13.14;66.50;100082.19;125917;1093;22880;-57
2021/08/18 03:39:08;;;;;;;17.30;4.93;;;;;;;13.10;66.76;100080.91;125756;1093;22759;-56
2021/08/18 03:41:39;;;;;;;14.60;4.55;;;;;;;13.08;66.44;100078.58;125790;1093;27725;-57
2021/08/18 03:44:10;;;;;;;15.57;4.47;;;;;;;13.06;66.46;100075.52;125782;1093;26235;-57
2021/08/18 03:46:44;;;;;;;13.97;4.30;;;;;;;13.00;66.62;100078.26;125843;1093;22745;-57
2021/08/18 03:49:15;;;;;;;15.80;4.30;;;;;;;12.97;66.70;100078.50;125946;1092;22812;-56
2021/08/18 03:51:47;;;;;;;19.03;4.63;;;;;;;12.92;66.79;100077.19;125788;1093;28455;-57
2021/08/18 03:54:18;;;;;;;17.00;4.93;;;;;;;12.88;67.15;100076.66;125793;1092;25456;-57
2021/08/18 03:56:50;;;;;;;16.85;4.80;;;;;;;12.85;66.67;100079.67;125798;1093;27316;-57
2021/08/18 03:59:21;;;;;;;18.63;5.60;;;;;;;12.82;67.29;100083.48;125793;1093;27626;-57
2021/08/18 04:01:53;;;;;;;15.63;4.80;;;;;;;12.75;66.95;100086.73;125860;1093;27173;-57
2021/08/18 04:04:25;;;;;;;18.25;5.20;;;;;;;12.72;67.16;100090.54;125842;1093;22786;-56
2021/08/18 04:06:57;;;;;;;15.13;4.77;;;;;;;12.67;67.42;100075.22;125772;1093;22784;-56
2021/08/18 04:09:28;;;;;;;16.00;5.47;;;;;;;12.65;67.18;100090.98;125838;1092;22790;-57
2021/08/18 04:11:59;;;;;;;18.40;5.55;;;;;;;12.61;67.53;100093.23;125791;1093;22812;-55
2021/08/18 04:14:31;;;;;;;17.53;4.67;;;;;;;12.58;67.50;100094.25;125848;1093;26568;-56
2021/08/18 04:17:02;;;;;;;16.27;4.93;;;;;;;12.55;67.80;100098.03;125894;1092;23308;-57
2021/08/18 04:19:36;;;;;;;19.03;5.13;;;;;;;12.53;67.77;100103.36;125731;1093;22767;-55
2021/08/18 04:22:08;;;;;;;17.17;4.87;;;;;;;12.51;67.93;100111.48;125865;1093;22781;-55
2021/08/18 04:24:40;;;;;;;17.10;5.00;;;;;;;12.50;67.97;100093.91;125853;1093;22758;-56
2021/08/18 04:27:11;;;;;;;17.60;4.90;;;;;;;12.49;68.08;100102.81;125825;1093;26242;-57
2021/08/18 04:29:43;;;;;;;18.27;6.27;;;;;;;12.48;68.28;100109.66;125900;1093;22796;-54
2021/08/18 04:32:14;;;;;;;14.30;4.77;;;;;;;12.47;68.53;100096.94;125838;1093;22814;-55
2021/08/18 04:34:46;;;;;;;17.87;4.93;;;;;;;12.47;68.33;100108.91;125837;1091;22851;-58
2021/08/18 04:37:17;;;;;;;16.20;5.50;;;;;;;12.50;68.08;100104.33;125861;1092;27194;-56
2021/08/18 04:39:48;;;;;;;20.03;5.20;;;;;;;12.53;68.41;100111.75;125817;1093;22815;-54
2021/08/18 04:42:20;;;;;;;17.30;5.10;;;;;;;12.54;68.92;100118.91;125858;1093;26777;-56
2021/08/18 04:44:51;;;;;;;16.90;5.20;;;;;;;12.54;68.99;100118.91;125860;1093;22791;-57
2021/08/18 04:47:23;;;;;;;18.37;5.23;;;;;;;12.55;68.86;100114.83;125888;1092;24237;-54
2021/08/18 04:49:55;;;;;;;16.20;4.80;;;;;;;12.58;69.11;100128.59;125850;1093;22757;-55
2021/08/18 04:52:27;;;;;;;16.40;4.80;;;;;;;12.60;68.97;100126.07;125849;1093;27859;-56
2021/08/18 04:54:59;;;;;;;19.50;6.23;;;;;;;12.62;68.83;100131.94;125768;1093;25861;-55
2021/08/18 04:57:31;;;;;;;18.35;5.40;;;;;;;12.67;69.05;100139.64;125776;1093;22757;-57
2021/08/18 05:00:03;;;;;;;17.50;5.50;;;;;;;12.70;69.37;100138.66;125864;1093;22765;-56
2021/08/18 05:02:37;;;;;;;19.57;5.60;;;;;;;12.73;69.00;100145.28;126014;1093;23489;-57
2021/08/18 05:05:10;;;;;;;16.97;5.23;;;;;;;12.79;68.79;100143.29;125835;1092;27169;-59
2021/08/18 05:07:42;;;;;;;19.10;5.20;;;;;;;12.82;69.08;100147.91;125817;1093;22762;-57
2021/08/18 05:10:14;;;;;;;16.60;4.83;;;;;;;12.86;68.86;100145.66;125779;1093;22852;-56
2021/08/18 05:12:46;;;;;;;16.25;5.25;;;;;;;12.89;69.43;100153.08;125940;1093;24420;-54
2021/08/18 05:15:17;;;;;;;19.87;5.60;;;;;;;12.93;69.22;100150.81;125740;1093;25976;-58
2021/08/18 05:17:49;;;;;;;16.40;5.25;;;;;;;12.97;69.42;100154.16;125873;1093;22918;-57
2021/08/18 05:20:21;;;;;;;16.93;5.17;;;;;;;13.01;69.16;100149.09;125670;1093;26232;-60
2021/08/18 05:22:54;;;;;;;20.07;5.23;;;;;;;13.07;69.49;100149.93;125761;1093;26513;-62
2021/08/18 05:25:26;;;;;;;18.45;5.10;;;;;;;13.10;69.31;100151.72;125899;1093;22771;-57
2021/08/18 05:28:03;;;;;;;16.50;5.70;;;;;;;13.14;69.17;100155.06;125898;1093;22967;-56
2021/08/18 05:30:35;;;;;;;15.70;4.70;;;;;;;13.20;69.47;100149.52;125799;1093;22757;-63
2021/08/18 05:33:06;;;;;;;20.45;5.50;;;;;;;13.24;69.49;100158.46;125819;1093;22805;-59
2021/08/18 05:35:38;;;;;;;16.87;4.70;;;;;;;13.30;69.53;100146.02;125775;1092;25945;-58
2021/08/18 05:38:09;;;;;;;16.40;5.10;;;;;;;13.37;69.42;100161.58;125823;1093;22788;-57
2021/08/18 05:40:41;;;;;;;13.50;4.20;;;;;;;13.43;69.40;100160.36;125708;1092;22739;-59
2021/08/18 05:43:15;;;;;;;14.93;4.03;;;;;;;13.49;68.73;100161.16;125742;1093;25861;-59
2021/08/18 05:45:46;;;;;;;16.70;4.10;;;;;;;13.57;68.48;100167.83;125849;1093;22806;-61
2021/08/18 05:48:19;;;;;;;13.83;3.37;;;;;;;13.65;69.05;100159.73;125679;1092;23697;-61
2021/08/18 05:50:52;;;;;;;13.95;3.70;;;;;;;13.75;69.00;100156.22;125439;1093;25839;-62
2021/08/18 05:53:23;;;;;;;14.80;3.75;;;;;;;13.85;68.90;100167.98;125470;1092;22731;-62
2021/08/18 05:55:55;;;;;;;13.05;3.70;;;;;;;13.93;68.37;100157.80;125540;1093;25861;-59
2021/08/18 05:58:26;;;;;;;14.73;3.90;;;;;;;14.03;68.43;100163.98;125719;1093;22787;-61
2021/08/18 06:00:58;;;;;;;15.45;3.30;;;;;;;14.12;68.02;100163.75;125693;1093;22925;-60
2021/08/18 06:03:30;;;;;;;12.63;3.30;;;;;;;14.21;67.82;100160.72;125817;1093;23695;-63
2021/08/18 06:06:01;;;;;;;10.65;1.95;;;;;;;14.31;67.01;100162.05;126175;1093;22774;-60
2021/08/18 06:08:33;;;;;;;10.53;2.27;;;;;;;14.39;67.10;100160.28;125604;1093;22809;-60
2021/08/18 06:11:04;;;;;;;12.00;2.85;;;;;;;14.43;66.38;100155.18;126073;1093;22796;-60
2021/08/18 06:13:36;;;;;;;12.15;2.35;;;;;;;14.47;66.99;100147.27;125616;1093;22784;-59
2021/08/18 06:16:08;;;;;;;9.47;2.57;;;;;;;14.53;66.29;100143.20;125680;1093;22812;-61
2021/08/18 06:18:40;;;;;;;7.48;2.15;;;;;;;14.58;66.34;100145.27;125703;1091;22760;-61
2021/08/18 06:21:11;;;;;;;9.87;2.77;;;;;;;14.65;65.97;100143.97;125717;1091;25814;-60
2021/08/18 06:23:44;;;;;;;12.53;2.77;;;;;;;14.70;66.41;100145.26;125806;1092;28717;-61
2021/08/18 06:26:15;;;;;;;10.95;3.30;;;;;;;14.75;66.34;100152.94;126078;1092;22972;-59
2021/08/18 06:28:47;;;;;;;11.30;3.10;;;;;;;14.81;65.94;100156.52;125759;1092;22804;-61
2021/08/18 06:31:18;;;;;;;11.23;3.00;;;;;;;14.87;65.53;100149.63;125780;1093;22763;-62
2021/08/18 06:33:50;;;;;;;10.25;2.70;;;;;;;14.95;65.88;100138.63;126157;1093;22739;-59
2021/08/18 06:36:21;;;;;;;10.50;2.05;;;;;;;15.03;65.04;100140.41;125761;1091;22900;-61
2021/08/18 06:38:52;;;;;;;12.67;2.30;;;;;;;15.11;65.34;100137.84;125781;1093;22762;-60
2021/08/18 06:41:24;;;;;;;10.70;2.70;;;;;;;15.17;65.36;100130.16;125831;1093;22812;-61
2021/08/18 06:43:55;;;;;;;10.10;2.10;;;;;;;15.23;64.44;100134.50;126125;1093;22918;-61
2021/08/18 06:46:26;;;;;;;9.85;2.40;;;;;;;15.31;64.95;100127.07;125869;1092;22788;-61
2021/08/18 06:48:58;;;;;;;10.90;2.05;;;;;;;15.40;64.15;100140.09;126093;1093;24445;-63
2021/08/18 06:51:29;;;;;;;10.20;2.57;;;;;;;15.46;64.13;100131.70;125804;1092;27161;-61
2021/08/18 06:54:01;;;;;;;10.15;2.05;;;;;;;15.50;63.54;100135.75;125851;1092;22769;-63
2021/08/18 06:56:32;;;;;;;12.45;2.85;;;;;;;15.57;63.67;100140.09;125879;1092;24513;-60
2021/08/18 06:59:08;;;;;;;11.35;2.50;;;;;;;15.62;63.21;100142.13;125874;1093;22788;-63
2021/08/18 07:01:39;;;;;;;11.30;2.55;;;;;;;15.63;63.06;100140.83;126070;1093;22815;-62
2021/08/18 07:04:11;;;;;;;11.90;2.70;;;;;;;15.68;63.16;100140.84;125882;1093;27122;-60
2021/08/18 07:06:42;;;;;;;11.05;2.60;;;;;;;15.73;62.65;100142.08;125979;1093;22802;-61
2021/08/18 07:09:14;;;;;;;10.50;2.47;;;;;;;15.78;63.01;100138.48;125946;1093;25855;-61
2021/08/18 07:11:46;;;;;;;10.15;2.25;;;;;;;15.82;61.87;100141.80;125896;1092;22761;-60
2021/08/18 07:14:18;;;;;;;12.20;2.87;;;;;;;15.90;62.96;100142.78;125914;1093;26504;-62
2021/08/18 07:16:49;;;;;;;13.20;2.55;;;;;;;15.97;62.84;100145.07;126021;1093;22736;-60
2021/08/18 07:19:21;;;;;;;8.85;2.15;;;;;;;16.02;62.08;100147.85;125773;1092;22759;-62
2021/08/18 07:21:53;;;;;;;9.40;2.50;;;;;;;16.05;61.95;100149.64;125864;1092;22761;-61
2021/08/18 07:24:25;;;;;;;11.40;2.30;;;;;;;16.11;62.37;100138.34;125864;1093;22791;-62
2021/08/18 07:26:57;;;;;;;10.23;2.00;;;;;;;16.15;61.95;100148.05;125928;1093;22774;-62
2021/08/18 07:29:28;;;;;;;8.65;1.90;;;;;;;16.26;61.63;100152.09;125927;1093;22762;-61
2021/08/18 07:32:00;;;;;;;11.10;2.15;;;;;;;16.33;61.82;100155.11;125818;1091;22758;-60
2021/08/18 07:34:33;;;;;;;8.70;1.90;;;;;;;16.42;59.93;100148.41;126668;1093;24157;-62
2021/08/18 07:37:06;;;;;;;8.80;2.07;;;;;;;16.44;60.90;100160.69;125906;1093;22729;-61
2021/08/18 07:39:37;;;;;;;8.15;1.70;;;;;;;16.46;60.17;100162.98;125927;1093;27166;-61
2021/08/18 07:42:11;;;;;;;8.10;1.75;;;;;;;16.50;60.50;100158.63;125813;1093;25864;-60
2021/08/18 07:44:43;;;;;;;8.10;1.65;;;;;;;16.54;60.59;100164.76;125930;1091;22784;-62
2021/08/18 07:47:16;;;;;;;11.15;2.30;;;;;;;16.54;59.63;100163.98;126072;1093;22757;-62
2021/08/18 07:49:47;;;;;;;9.75;1.90;;;;;;;16.48;59.78;100157.59;125996;1091;22915;-60
2021/08/18 07:52:19;;;;;;;9.45;1.70;;;;;;;16.45;59.88;100159.39;125841;1092;22742;-62
2021/08/18 07:54:51;;;;;;;7.60;1.75;;;;;;;16.43;59.49;100158.41;126063;1093;22780;-61
2021/08/18 07:57:22;;;;;;;8.35;1.60;;;;;;;16.46;59.48;100160.94;126154;1093;22810;-62
2021/08/18 07:59:55;;;;;;;7.80;1.43;;;;;;;16.55;59.18;100162.70;126000;1093;22855;-60
2021/08/18 08:02:26;;;;;;;8.53;1.60;;;;;;;16.64;59.78;100162.38;126187;1093;22711;-62
2021/08/18 08:04:58;;;;;;;7.13;1.33;;;;;;;16.78;59.47;100161.27;126038;1092;22773;-61
2021/08/18 08:07:29;;;;;;;7.55;1.55;;;;;;;16.88;58.50;100166.03;126071;1092;22784;-61
2021/08/18 08:10:01;;;;;;;7.40;1.50;;;;;;;16.96;58.54;100158.56;125928;1093;22754;-61
2021/08/18 08:12:33;;;;;;;6.05;1.60;;;;;;;17.01;57.80;100170.32;125926;1093;24177;-61
2021/08/18 08:15:05;;;;;;;7.50;1.55;;;;;;;16.94;57.79;100168.83;126116;1092;22760;-62
2021/08/18 08:17:37;;;;;;;7.80;1.50;;;;;;;16.89;57.99;100180.91;126154;1093;22869;-61
2021/08/18 08:20:10;;;;;;;8.95;1.55;;;;;;;16.83;57.95;100171.73;126047;1093;22784;-61
2021/08/18 08:22:43;;;;;;;5.05;1.20;;;;;;;16.87;58.05;100167.34;126049;1093;27498;-60
2021/08/18 08:25:15;;;;;;;9.10;1.70;;;;;;;16.93;57.62;100168.06;126634;1093;22755;-59
2021/08/18 08:27:47;;;;;;;8.80;1.30;;;;;;;16.94;58.00;100166.02;125915;1093;22778;-62
2021/08/18 08:30:19;;;;;;;5.45;1.20;;;;;;;16.96;57.94;100169.07;125758;1093;22765;-61
2021/08/18 08:32:50;;;;;;;5.70;1.30;;;;;;;16.98;57.81;100169.31;125798;1093;26675;-59
2021/08/18 08:35:22;;;;;;;6.95;1.35;;;;;;;16.98;57.18;100174.95;125811;1093;22772;-60
2021/08/18 08:37:53;;;;;;;5.57;1.20;;;;;;;16.99;57.29;100173.64;125824;1093;22905;-59
2021/08/18 08:40:25;;;;;;;5.35;1.30;;;;;;;16.98;57.18;100174.95;126090;1092;22828;-61
2021/08/18 08:42:57;;;;;;;11.35;1.60;;;;;;;16.99;57.15;100174.42;125926;1093;26309;-61
2021/08/18 08:45:30;;;;;;;6.90;1.63;;;;;;;17.13;57.05;100164.06;125962;1093;22823;-61
2021/08/18 08:48:02;;;;;;;5.50;1.40;;;;;;;17.27;56.96;100160.08;126384;1093;22793;-61
2021/08/18 08:50:34;;;;;;;5.45;1.10;;;;;;;17.28;56.37;100160.82;125788;1093;22801;-62
2021/08/18 08:53:06;;;;;;;4.90;1.00;;;;;;;17.24;56.29;100161.13;125920;1093;22883;-62
2021/08/18 08:55:39;;;;;;;7.15;1.20;;;;;;;17.29;56.27;100151.85;126111;1093;22797;-61
2021/08/18 08:58:11;;;;;;;5.33;1.30;;;;;;;17.42;56.82;100151.22;125834;1093;24981;-60
2021/08/18 09:00:42;;;;;;;6.90;1.63;;;;;;;17.61;56.02;100152.82;125689;1093;22797;-62
2021/08/18 09:03:16;;;;;;;5.55;1.00;;;;;;;17.74;55.79;100146.52;125775;1092;22775;-62
2021/08/18 09:05:49;;;;;;;4.27;1.00;;;;;;;17.85;56.04;100154.09;125707;1093;22844;-61
2021/08/18 09:08:23;;;;;;;5.70;1.07;;;;;;;17.89;55.39;100157.39;125688;1093;22751;-61
2021/08/18 09:11:10;;;;;;;6.90;1.15;;;;;;;17.94;55.51;100160.13;125797;1093;22793;-60
2021/08/18 09:13:46;;;;;;;4.85;0.80;;;;;;;17.90;54.43;100153.28;125829;1093;24433;-60
2021/08/18 09:16:20;;;;;;;6.30;1.00;;;;;;;17.87;55.59;100143.03;125783;1093;25877;-61
2021/08/18 09:18:53;;;;;;;6.30;0.90;;;;;;;17.93;55.37;100140.91;125707;1093;22895;-61
2021/08/18 09:21:37;;;;;;;6.15;0.90;;;;;;;17.99;55.07;100144.42;125858;1092;22758;-61
2021/08/18 09:24:24;;;;;;;3.55;1.00;;;;;;;18.01;54.64;100139.77;125855;1092;22788;-61
2021/08/18 09:26:57;;;;;;;3.75;0.85;;;;;;;18.07;55.27;100134.81;125891;1093;22826;-60
2021/08/18 09:29:35;;;;;;;6.20;0.93;;;;;;;18.16;55.06;100131.62;126007;1093;22742;-59
2021/08/18 09:32:27;;;;;;;3.75;0.85;;;;;;;18.26;54.62;100137.64;125905;1093;22784;-61
2021/08/18 09:35:00;;;;;;;3.20;0.90;;;;;;;18.31;54.14;100142.47;125805;1093;27765;-61
2021/08/18 09:37:42;;;;;;;4.20;0.90;;;;;;;18.25;53.67;100148.17;125928;1092;27201;-61
2021/08/18 09:40:19;;;;;;;3.67;0.90;;;;;;;18.14;53.13;100142.69;125781;1093;22771;-62
2021/08/18 09:42:51;;;;;;;4.27;0.90;;;;;;;18.06;53.48;100135.35;125737;1093;26235;-59
2021/08/18 09:45:31;;;;;;;2.57;0.80;;;;;;;18.10;53.32;100132.98;125944;1093;22890;-61
2021/08/18 09:48:05;;;;;;;3.93;0.97;;;;;;;18.09;53.06;100131.45;125936;1093;22812;-61
2021/08/18 09:50:54;;;;;;;4.35;0.70;;;;;;;18.04;52.79;100141.55;126062;1093;22722;-60
2021/08/18 09:53:27;;;;;;;3.33;0.60;;;;;;;17.97;53.04;100130.06;125722;1093;22763;-61
2021/08/18 09:56:03;;;;;;;4.13;0.80;;;;;;;17.94;53.48;100120.59;126038;1093;22896;-60
2021/08/18 09:58:36;;;;;;;4.50;0.80;;;;;;;18.09;53.32;100123.73;125995;1093;22781;-60
2021/08/18 10:01:10;;;;;;;4.73;0.77;;;;;;;18.21;51.92;100133.59;125843;1093;22761;-60
2021/08/18 10:03:42;;;;;;;4.50;0.60;;;;;;;18.22;51.94;100123.83;125906;1093;22781;-59
2021/08/18 10:06:14;;;;;;;6.87;0.87;;;;;;;18.20;51.76;100123.59;126204;1093;22763;-61
2021/08/18 10:08:49;;;;;;;3.47;0.67;;;;;;;18.27;52.42;100125.05;125869;1093;22841;-60
2021/08/18 10:11:21;;;;;;;5.40;0.90;;;;;;;18.43;52.07;100124.84;125814;1093;22818;-60
2021/08/18 10:13:54;;;;;;;2.47;0.63;;;;;;;18.51;51.37;100122.92;125870;1093;22867;-60
2021/08/18 10:16:27;;;;;;;3.27;0.70;;;;;;;18.55;51.35;100119.77;125797;1093;22767;-60
2021/08/18 10:19:04;;;;;;;4.13;0.63;;;;;;;18.63;51.89;100108.59;125802;1093;26251;-60
2021/08/18 10:21:36;;;;;;;3.67;0.70;;;;;;;18.76;52.13;100106.59;125934;1092;22771;-60
2021/08/18 10:24:09;;;;;;;9.30;0.70;;;;;;;18.93;51.62;100104.23;125878;1093;27208;-61
2021/08/18 10:26:54;;;;;;;3.10;0.60;;;;;;;19.03;51.35;100104.59;125830;1093;22788;-62
2021/08/18 10:29:37;;;;;;;3.50;0.70;;;;;;;19.11;51.11;100099.81;125830;1092;22737;-61
2021/08/18 10:32:13;;;;;;;2.67;0.70;;;;;;;19.18;50.55;100099.19;125824;1093;27192;-61
2021/08/18 10:34:47;;;;;;;2.85;0.70;;;;;;;19.22;50.70;100096.80;125924;1093;22798;-59
2021/08/18 10:37:29;;;;;;;2.83;0.63;;;;;;;19.23;50.41;100109.63;125793;1093;27733;-59
2021/08/18 10:40:15;;;;;;;4.93;0.78;;;;;;;19.12;50.20;100099.27;126039;1093;22854;-60
2021/08/18 10:42:47;;;;;;;4.08;0.70;;;;;;;19.00;49.74;100105.66;125924;1093;25300;-57
2021/08/18 10:45:38;;;;;;;4.83;0.95;;;;;;;18.85;50.21;100108.99;125864;1091;27275;-60
2021/08/18 10:48:10;;;;;;;3.00;0.70;;;;;;;18.75;50.10;100112.77;125800;1092;22785;-57
2021/08/18 10:50:49;;;;;;;4.87;1.00;;;;;;;18.72;50.35;100106.14;125776;1093;22796;-57
2021/08/18 10:53:32;;;;;;;4.10;0.60;;;;;;;18.70;50.30;100105.92;125833;1093;26584;-57
2021/08/18 10:56:41;;;;;;;3.70;0.70;;;;;;;18.68;50.81;100117.01;125996;1092;22760;-57
2021/08/18 10:59:51;;;;;;;1.57;0.40;;;;;;;18.62;50.23;100119.16;125718;1093;22762;-57
2021/08/18 11:02:55;;;;;;;3.63;0.50;;;;;;;18.68;50.41;100114.18;125739;1096;26009;-57
2021/08/18 11:05:28;;;;;;;2.23;0.50;;;;;;;18.73;50.32;100106.88;125668;1096;25974;-57
2021/08/18 11:08:05;;;;;;;4.20;0.55;;;;;;;18.82;50.93;100112.15;125812;1096;22740;-56
2021/08/18 11:10:39;;;;;;;3.23;0.33;;;;;;;18.95;50.14;100115.02;125610;1096;22800;-57
2021/08/18 11:13:12;;;;;;;2.27;0.33;;;;;;;19.05;50.26;100104.81;125673;1096;22865;-58
2021/08/18 11:15:54;;;;;;;3.05;0.40;;;;;;;19.14;49.38;100110.06;125599;1096;22877;-58
2021/08/18 11:18:26;;;;;;;1.10;0.20;;;;;;;19.20;49.76;100105.06;125639;1096;26404;-59
2021/08/18 11:20:58;;;;;;;4.20;0.50;;;;;;;19.26;48.80;100105.72;125472;1096;22809;-56
2021/08/18 11:23:35;;;;;;;4.37;0.40;;;;;;;19.32;49.16;100098.66;125512;1095;22848;-57
2021/08/18 11:26:08;;;;;;;2.35;0.50;;;;;;;19.38;48.80;100106.30;125660;1096;22810;-59
2021/08/18 11:28:39;;;;;;;2.07;0.43;;;;;;;19.40;48.64;100090.30;125675;1095;22780;-55
2021/08/18 11:31:13;;;;;;;2.93;0.40;;;;;;;19.42;48.99;100087.69;125370;1096;22774;-55
2021/08/18 11:33:45;;;;;;;1.20;0.33;;;;;;;19.50;49.01;100090.61;125869;1095;25714;-56
2021/08/18 11:36:20;;;;;;;1.83;0.43;;;;;;;19.57;49.54;100095.64;125469;1097;22855;-56
2021/08/18 11:39:04;;;;;;;1.95;0.45;;;;;;;19.72;48.67;100084.52;125356;1093;26364;-56